Time;durP1;ratioP1;P1;durP2;ratioP2;P2;SDS_P1;SDS_P2;PMS_P1;PMS_P2;Temp;Humidity;BMP_temperature;BMP_pressure;BME280_temperature;BME280_humidity;BME280_pressure;Samples;Min_cycle;Max_cycle;Signal;HPM_P1;HPM_P2
2021/03/11 00:01:37;;;;;;;22.10;14.83;;;;;;;6.67;70.93;99898.22;5073969;28;20206;-79
2021/03/11 00:04:03;;;;;;;22.60;14.10;;;;;;;6.65;70.70;99893.03;5069637;28;20296;-80
2021/03/11 00:06:29;;;;;;;24.63;15.40;;;;;;;6.61;71.37;99868.56;5069800;28;20268;-79
2021/03/11 00:08:55;;;;;;;23.27;14.17;;;;;;;6.59;71.82;99867.81;5063725;28;20221;-79
2021/03/11 00:11:21;;;;;;;26.20;15.10;;;;;;;6.57;72.04;99868.84;5062973;28;20213;-82
2021/03/11 00:13:47;;;;;;;25.13;15.33;;;;;;;6.54;72.29;99867.22;5066527;28;20696;-82
2021/03/11 00:16:14;;;;;;;25.73;14.63;;;;;;;6.51;72.01;99863.91;5063531;28;20695;-82
2021/03/11 00:18:40;;;;;;;20.33;13.70;;;;;;;6.47;72.34;99871.16;5060466;28;20227;-81
2021/03/11 00:21:06;;;;;;;24.57;14.80;;;;;;;6.45;72.25;99849.22;5060656;28;20288;-79
2021/03/11 00:23:33;;;;;;;21.20;13.60;;;;;;;6.41;72.80;99846.88;5058386;28;20690;-80
2021/03/11 00:25:59;;;;;;;20.33;13.70;;;;;;;6.39;73.01;99851.41;5058593;28;20273;-79
2021/03/11 00:28:25;;;;;;;21.53;13.30;;;;;;;6.38;72.80;99841.78;5061485;28;20225;-79
2021/03/11 00:30:51;;;;;;;26.30;14.73;;;;;;;6.35;73.08;99829.56;5062838;28;20237;-80
2021/03/11 00:33:18;;;;;;;20.07;14.00;;;;;;;6.34;73.34;99825.22;5065244;28;20324;-80
2021/03/11 00:35:44;;;;;;;21.73;13.73;;;;;;;6.31;73.30;99812.19;5067884;28;20209;-82
2021/03/11 00:38:10;;;;;;;23.20;14.10;;;;;;;6.30;73.54;99817.56;5060773;28;20750;-82
2021/03/11 00:40:36;;;;;;;22.43;14.13;;;;;;;6.26;73.70;99815.13;5060792;28;20342;-82
2021/03/11 00:43:03;;;;;;;20.93;14.13;;;;;;;6.24;74.03;99800.28;5063197;28;20300;-82
2021/03/11 00:45:29;;;;;;;20.17;12.97;;;;;;;6.22;74.03;99800.38;5062784;28;20367;-82
2021/03/11 00:47:55;;;;;;;22.83;14.13;;;;;;;6.21;74.17;99797.81;5063701;28;20247;-79
2021/03/11 00:50:23;;;;;;;23.17;13.63;;;;;;;6.19;74.33;99786.47;5059032;28;20683;-81
2021/03/11 00:52:50;;;;;;;20.03;12.90;;;;;;;6.17;74.42;99775.13;5065727;28;20224;-82
2021/03/11 00:55:19;;;;;;;19.20;11.47;;;;;;;6.15;74.64;99769.94;5068048;28;20296;-80
2021/03/11 00:57:45;;;;;;;21.10;13.13;;;;;;;6.12;74.80;99751.59;5058935;28;20205;-80
2021/03/11 01:00:14;;;;;;;20.50;13.90;;;;;;;6.10;74.92;99742.06;5060198;28;20213;-78
2021/03/11 01:02:40;;;;;;;22.77;14.60;;;;;;;6.07;74.79;99740.47;5058111;28;20244;-81
2021/03/11 01:05:08;;;;;;;20.70;13.33;;;;;;;6.05;75.05;99734.44;5061130;28;20293;-80
2021/03/11 01:07:35;;;;;;;20.50;13.30;;;;;;;6.03;75.27;99736.31;5057374;28;20245;-80
2021/03/11 01:10:01;;;;;;;20.30;14.27;;;;;;;6.01;75.20;99727.59;5059909;28;20221;-80
2021/03/11 01:12:27;;;;;;;22.23;14.20;;;;;;;5.98;75.66;99726.94;5057013;28;20244;-81
2021/03/11 01:14:53;;;;;;;20.63;13.77;;;;;;;5.95;76.00;99727.97;5056470;28;20233;-80
2021/03/11 01:17:19;;;;;;;17.27;12.13;;;;;;;5.92;76.01;99713.13;5057833;28;20626;-82
2021/03/11 01:19:45;;;;;;;20.60;13.27;;;;;;;5.91;75.99;99703.50;5059869;28;20224;-82
2021/03/11 01:22:11;;;;;;;17.43;12.60;;;;;;;5.89;76.16;99697.47;5062380;28;20217;-82
2021/03/11 01:24:41;;;;;;;18.17;13.23;;;;;;;5.89;76.41;99688.72;5065348;28;20196;-82
2021/03/11 01:27:08;;;;;;;17.57;12.67;;;;;;;5.86;76.54;99670.34;5064566;28;20201;-81
2021/03/11 01:29:34;;;;;;;19.83;12.80;;;;;;;5.86;76.79;99647.41;5063841;28;20283;-80
2021/03/11 01:32:01;;;;;;;20.87;9.90;;;;;;;5.86;76.73;99633.34;5059324;28;20200;-81
2021/03/11 01:34:27;;;;;;;19.37;13.03;;;;;;;5.84;76.78;99633.44;5057631;28;20292;-82
2021/03/11 01:36:53;;;;;;;18.90;13.47;;;;;;;5.85;76.86;99634.31;5060912;28;20231;-78
2021/03/11 01:39:19;;;;;;;19.87;13.70;;;;;;;5.84;76.86;99625.53;5065378;28;20594;-80
2021/03/11 01:41:46;;;;;;;20.50;13.00;;;;;;;5.86;76.91;99625.44;5059416;28;20255;-81
2021/03/11 01:44:13;;;;;;;18.40;13.40;;;;;;;5.85;76.82;99605.22;5063190;28;20214;-81
2021/03/11 01:46:39;;;;;;;20.83;13.80;;;;;;;5.84;77.12;99599.09;5062026;28;20212;-79
2021/03/11 01:49:05;;;;;;;20.63;13.00;;;;;;;5.85;77.11;99592.03;5055710;28;20643;-79
2021/03/11 01:51:33;;;;;;;18.93;13.00;;;;;;;5.87;76.89;99584.84;5060933;28;20249;-80
2021/03/11 01:53:59;;;;;;;18.37;12.50;;;;;;;5.87;77.21;99587.50;5060824;28;20289;-81
2021/03/11 01:56:26;;;;;;;19.30;13.13;;;;;;;5.90;77.12;99571.50;5059065;28;20249;-79
2021/03/11 01:58:53;;;;;;;20.10;13.90;;;;;;;5.89;77.39;99568.00;5059236;28;20222;-79
2021/03/11 02:01:19;;;;;;;18.40;13.43;;;;;;;5.90;77.00;99561.78;5060770;28;20209;-82
2021/03/11 02:03:45;;;;;;;18.27;12.67;;;;;;;5.92;77.18;99553.72;5058373;28;20222;-78
2021/03/11 02:06:11;;;;;;;18.73;12.80;;;;;;;5.95;76.90;99558.81;5058313;28;20861;-80
2021/03/11 02:08:37;;;;;;;19.27;13.63;;;;;;;5.94;77.09;99538.63;5057149;28;20239;-80
2021/03/11 02:11:04;;;;;;;23.20;15.13;;;;;;;5.95;76.93;99537.69;5054203;28;20269;-80
2021/03/11 02:13:39;;;;;;;19.13;13.10;;;;;;;5.95;77.08;99524.47;5056208;28;20732;-80
2021/03/11 02:16:13;;;;;;;19.53;13.43;;;;;;;5.96;76.95;99522.69;5060555;28;20607;-81
2021/03/11 02:18:46;;;;;;;20.73;13.50;;;;;;;5.97;76.81;99514.66;5058583;28;20248;-81
2021/03/11 02:21:18;;;;;;;19.90;14.10;;;;;;;5.97;76.96;99492.66;5057070;28;20296;-80
2021/03/11 02:24:22;;;;;;;21.97;14.27;;;;;;;5.98;76.95;99482.00;5055548;28;20217;-79
2021/03/11 02:27:23;;;;;;;21.00;13.80;;;;;;;5.99;76.89;99481.06;5057111;28;20730;-81
2021/03/11 02:29:52;;;;;;;23.47;13.50;;;;;;;6.00;76.88;99463.41;5056454;28;20229;-80
2021/03/11 02:32:19;;;;;;;21.27;14.03;;;;;;;6.00;77.04;99453.69;5057634;28;20273;-80
2021/03/11 02:34:48;;;;;;;19.20;14.20;;;;;;;6.02;76.95;99454.44;5057804;28;20202;-79
2021/03/11 02:37:19;;;;;;;20.10;13.33;;;;;;;6.02;76.88;99441.22;5055269;28;20201;-81
2021/03/11 02:39:53;;;;;;;19.43;14.73;;;;;;;6.03;76.86;99424.41;5059190;28;20221;-79
2021/03/11 02:42:20;;;;;;;21.50;13.13;;;;;;;6.05;76.83;99432.25;5057952;28;20213;-76
2021/03/11 02:44:47;;;;;;;20.67;13.83;;;;;;;6.06;76.68;99413.66;5058873;28;20730;-79
2021/03/11 02:47:13;;;;;;;19.93;13.50;;;;;;;6.06;76.94;99413.66;5057148;28;20624;-78
2021/03/11 02:49:41;;;;;;;20.20;14.20;;;;;;;6.08;76.57;99403.00;5060776;28;20567;-81
2021/03/11 02:52:08;;;;;;;19.83;13.17;;;;;;;6.12;76.74;99407.09;5054314;28;20292;-79
2021/03/11 02:54:35;;;;;;;17.20;12.90;;;;;;;6.11;76.55;99382.47;5055502;28;20215;-79
2021/03/11 02:57:04;;;;;;;18.40;12.87;;;;;;;6.12;76.63;99386.81;5055253;28;20206;-79
2021/03/11 02:59:31;;;;;;;18.17;12.87;;;;;;;6.14;76.81;99374.34;5056097;28;20703;-78
2021/03/11 03:02:00;;;;;;;17.80;12.67;;;;;;;6.17;76.45;99373.28;5055796;28;20202;-80
2021/03/11 03:04:28;;;;;;;17.87;12.40;;;;;;;6.19;76.44;99361.69;5062465;28;20209;-80
2021/03/11 03:06:54;;;;;;;19.30;12.70;;;;;;;6.20;76.27;99358.09;5058040;28;20656;-81
2021/03/11 03:09:21;;;;;;;15.57;11.13;;;;;;;6.22;76.20;99353.56;5061593;28;20299;-82
2021/03/11 03:11:48;;;;;;;17.63;12.10;;;;;;;6.23;75.98;99342.03;5059295;28;20209;-80
2021/03/11 03:14:16;;;;;;;19.50;13.10;;;;;;;6.24;76.54;99332.31;5062238;28;20229;-81
2021/03/11 03:16:43;;;;;;;20.27;13.20;;;;;;;6.27;76.19;99332.06;5060478;28;20411;-80
2021/03/11 03:19:11;;;;;;;18.30;12.00;;;;;;;6.27;76.24;99327.63;5061338;28;20226;-79
2021/03/11 03:21:41;;;;;;;21.60;12.10;;;;;;;6.28;76.23;99323.19;5063371;28;20292;-78
2021/03/11 03:24:09;;;;;;;20.40;13.13;;;;;;;6.32;76.07;99329.97;5064013;28;20214;-79
2021/03/11 03:26:35;;;;;;;17.07;11.90;;;;;;;6.35;76.13;99307.78;5063068;28;20258;-77
2021/03/11 03:29:02;;;;;;;18.10;11.87;;;;;;;6.37;75.97;99275.00;5060663;28;20646;-78
2021/03/11 03:31:28;;;;;;;16.47;12.00;;;;;;;6.37;76.19;99287.38;5060234;28;20284;-80
2021/03/11 03:33:54;;;;;;;20.40;12.50;;;;;;;6.39;76.00;99280.19;5066455;28;20273;-80
2021/03/11 03:36:20;;;;;;;16.53;11.57;;;;;;;6.39;75.95;99273.09;5067410;28;20213;-82
2021/03/11 03:38:47;;;;;;;17.53;12.17;;;;;;;6.40;75.81;99269.50;5066352;28;20305;-81
2021/03/11 03:41:14;;;;;;;17.30;12.50;;;;;;;6.40;75.97;99247.50;5056647;28;20202;-79
2021/03/11 03:43:43;;;;;;;18.03;12.23;;;;;;;6.42;76.04;99250.88;5059861;28;20214;-79
2021/03/11 03:46:11;;;;;;;17.57;12.47;;;;;;;6.41;76.09;99241.25;5055846;28;20205;-80
2021/03/11 03:48:42;;;;;;;16.80;11.87;;;;;;;6.41;75.77;99236.81;5056509;28;20237;-80
2021/03/11 03:51:10;;;;;;;14.80;10.63;;;;;;;6.42;76.20;99251.75;5056623;28;20832;-80
2021/03/11 03:53:41;;;;;;;18.30;12.50;;;;;;;6.44;75.99;99231.31;5057503;28;20289;-79
2021/03/11 03:56:15;;;;;;;15.57;11.27;;;;;;;6.47;75.80;99227.59;5053962;28;20206;-79
2021/03/11 03:58:57;;;;;;;15.23;10.43;;;;;;;6.49;75.90;99233.63;5060372;28;20220;-80
2021/03/11 04:01:26;;;;;;;18.27;12.43;;;;;;;6.51;75.62;99229.09;5100724;22;20236;-77
2021/03/11 04:03:52;;;;;;;17.07;11.50;;;;;;;6.54;75.46;99203.28;5095910;28;20207;-79
2021/03/11 04:06:19;;;;;;;16.40;11.87;;;;;;;6.53;75.84;99209.50;5095132;28;20287;-78
2021/03/11 04:08:47;;;;;;;15.93;11.50;;;;;;;6.55;76.22;99218.19;5096085;28;20224;-79
2021/03/11 04:11:16;;;;;;;15.90;10.77;;;;;;;6.56;75.59;99217.25;5095663;28;20311;-78
2021/03/11 04:13:43;;;;;;;16.27;11.53;;;;;;;6.58;75.57;99203.91;5097107;28;20249;-79
2021/03/11 04:16:10;;;;;;;20.07;11.90;;;;;;;6.58;75.66;99195.97;5099746;28;20721;-79
2021/03/11 04:18:37;;;;;;;13.10;9.77;;;;;;;6.55;75.89;99188.25;5099466;28;20287;-78
2021/03/11 04:21:06;;;;;;;15.30;10.67;;;;;;;6.57;75.46;99171.31;5099753;28;20302;-79
2021/03/11 04:23:33;;;;;;;13.50;10.93;;;;;;;6.58;75.66;99162.44;5100172;28;20204;-79
2021/03/11 04:25:59;;;;;;;14.83;10.20;;;;;;;6.59;75.31;99163.28;5099490;28;20208;-77
2021/03/11 04:28:26;;;;;;;14.63;10.77;;;;;;;6.60;75.41;99171.13;5095571;28;20553;-77
2021/03/11 04:30:52;;;;;;;13.80;9.73;;;;;;;6.60;75.63;99172.91;5078260;28;20236;-79
2021/03/11 04:33:19;;;;;;;13.87;9.37;;;;;;;6.62;75.66;99178.94;5079680;28;20208;-77
2021/03/11 04:35:45;;;;;;;15.43;10.40;;;;;;;6.63;75.69;99172.66;5079795;28;20297;-79
2021/03/11 04:38:11;;;;;;;14.93;10.37;;;;;;;6.66;75.55;99180.41;5078543;28;20296;-79
2021/03/11 04:40:38;;;;;;;14.23;10.17;;;;;;;6.69;75.58;99171.41;5060446;28;20217;-79
2021/03/11 04:43:04;;;;;;;14.30;9.50;;;;;;;6.72;75.46;99179.97;5059035;28;20303;-78
2021/03/11 04:45:32;;;;;;;15.47;10.03;;;;;;;6.71;75.43;99161.56;5064491;28;20205;-78
2021/03/11 04:48:00;;;;;;;14.27;9.27;;;;;;;6.74;75.56;99170.13;5078891;28;20205;-78
2021/03/11 04:50:28;;;;;;;13.60;9.87;;;;;;;6.75;75.23;99169.19;5074128;28;20226;-78
2021/03/11 04:52:57;;;;;;;14.70;9.43;;;;;;;6.76;75.26;99170.88;5059512;28;20229;-79
2021/03/11 04:55:23;;;;;;;14.27;9.97;;;;;;;6.78;75.11;99168.13;5076011;28;20212;-78
2021/03/11 04:57:50;;;;;;;12.73;9.60;;;;;;;6.78;75.32;99163.66;5079834;28;20208;-79
2021/03/11 05:00:18;;;;;;;11.93;9.23;;;;;;;6.78;75.27;99162.81;5077945;28;20250;-81
2021/03/11 05:02:47;;;;;;;14.87;9.27;;;;;;;6.80;75.49;99167.06;5078458;28;20228;-80
2021/03/11 05:05:24;;;;;;;13.47;9.40;;;;;;;6.84;75.32;99155.28;5079166;28;20350;-79
2021/03/11 05:07:50;;;;;;;12.33;8.90;;;;;;;6.85;75.06;99149.03;5078922;28;20237;-78
2021/03/11 05:10:16;;;;;;;12.53;8.50;;;;;;;6.84;75.11;99142.03;5078767;28;20655;-78
2021/03/11 05:12:42;;;;;;;11.80;8.37;;;;;;;6.86;74.91;99156.00;5078971;28;20239;-78
2021/03/11 05:15:09;;;;;;;12.73;8.47;;;;;;;6.88;75.43;99156.75;5079393;28;20205;-79
2021/03/11 05:17:35;;;;;;;14.10;9.57;;;;;;;6.92;75.39;99155.59;5078990;28;20255;-78
2021/03/11 05:20:03;;;;;;;10.07;7.30;;;;;;;6.93;74.65;99138.75;5078407;28;20312;-79
2021/03/11 05:22:29;;;;;;;12.83;8.60;;;;;;;6.95;74.93;99143.94;5078860;28;20255;-77
2021/03/11 05:24:55;;;;;;;12.77;9.57;;;;;;;6.96;75.16;99135.88;5077357;28;20291;-79
2021/03/11 05:27:21;;;;;;;12.30;9.13;;;;;;;7.01;75.27;99129.38;5071608;28;20239;-79
2021/03/11 05:29:47;;;;;;;12.03;8.50;;;;;;;7.03;74.86;99132.78;5077261;28;20225;-79
2021/03/11 05:32:14;;;;;;;16.10;9.00;;;;;;;7.05;75.22;99123.75;5077938;28;20208;-79
2021/03/11 05:34:40;;;;;;;10.70;7.73;;;;;;;7.05;75.05;99120.28;5078048;28;20254;-78
2021/03/11 05:37:07;;;;;;;11.13;8.37;;;;;;;7.06;75.14;99114.88;5077406;28;20211;-77
2021/03/11 05:39:33;;;;;;;10.70;7.83;;;;;;;7.08;74.81;99125.34;5076971;28;20296;-77
2021/03/11 05:42:00;;;;;;;10.77;7.47;;;;;;;7.08;75.50;99120.06;5076433;28;20556;-79
2021/03/11 05:44:27;;;;;;;11.93;7.37;;;;;;;7.07;75.05;99119.22;5077669;28;20342;-79
2021/03/11 05:46:55;;;;;;;10.03;8.10;;;;;;;7.08;75.62;99112.13;5060399;28;20197;-79
2021/03/11 05:49:23;;;;;;;12.47;7.73;;;;;;;7.11;74.94;99106.59;5058150;28;20225;-80
2021/03/11 05:51:49;;;;;;;9.57;6.70;;;;;;;7.13;75.71;99107.34;5057100;28;20212;-79
2021/03/11 05:54:17;;;;;;;10.40;7.50;;;;;;;7.16;75.70;99117.69;5064989;28;20227;-79
2021/03/11 05:56:43;;;;;;;10.20;7.40;;;;;;;7.17;75.43;99096.38;5077266;28;20296;-79
2021/03/11 05:59:09;;;;;;;10.40;7.13;;;;;;;7.20;75.36;99111.19;5077154;28;20219;-80
2021/03/11 06:01:36;;;;;;;9.73;7.73;;;;;;;7.22;75.30;99114.59;5077416;28;20324;-77
2021/03/11 06:04:03;;;;;;;10.93;6.90;;;;;;;7.23;75.62;99116.28;5077994;28;20729;-76
2021/03/11 06:06:31;;;;;;;11.80;7.73;;;;;;;7.25;75.64;99117.00;5077585;28;20205;-78
2021/03/11 06:08:58;;;;;;;10.90;7.33;;;;;;;7.25;75.91;99115.22;5077410;28;20561;-79
2021/03/11 06:11:26;;;;;;;10.77;7.17;;;;;;;7.23;76.69;99113.63;5077671;28;20225;-78
2021/03/11 06:13:52;;;;;;;9.67;7.37;;;;;;;7.26;76.19;99110.75;5076738;28;20296;-78
2021/03/11 06:16:21;;;;;;;10.63;7.67;;;;;;;7.24;77.01;99097.63;5076738;28;20249;-79
2021/03/11 06:18:50;;;;;;;9.47;7.00;;;;;;;7.23;76.65;99079.19;5070207;28;20205;-78
2021/03/11 06:21:16;;;;;;;10.27;7.60;;;;;;;7.21;76.79;99081.13;5077174;28;20217;-78
2021/03/11 06:23:43;;;;;;;13.00;8.03;;;;;;;7.17;76.67;99069.91;5065222;28;20201;-78
2021/03/11 06:26:11;;;;;;;9.73;6.43;;;;;;;7.14;77.16;99071.97;5056644;28;20296;-78
2021/03/11 06:28:55;;;;;;;9.23;7.17;;;;;;;7.14;77.33;99064.88;5056805;28;20205;-79
2021/03/11 06:31:23;;;;;;;10.73;7.77;;;;;;;7.11;77.64;99051.84;5056405;28;20229;-79
2021/03/11 06:33:52;;;;;;;9.83;6.77;;;;;;;7.11;78.36;99053.66;5056586;28;20201;-79
2021/03/11 06:36:19;;;;;;;11.50;7.67;;;;;;;7.08;78.18;99060.00;5055576;28;20574;-79
2021/03/11 06:38:45;;;;;;;9.43;6.97;;;;;;;7.08;78.56;99038.00;5062468;28;20264;-79
2021/03/11 06:41:12;;;;;;;10.07;7.07;;;;;;;7.09;78.47;99055.56;5075901;28;20270;-79
2021/03/11 06:43:52;;;;;;;10.63;7.20;;;;;;;7.07;78.66;99052.19;5062476;28;20630;-81
2021/03/11 06:46:20;;;;;;;12.57;8.50;;;;;;;7.07;78.54;99044.25;5067514;28;20628;-81
2021/03/11 06:48:48;;;;;;;11.70;7.73;;;;;;;7.06;79.34;99048.69;5075397;28;20200;-81
2021/03/11 06:51:19;;;;;;;11.47;8.40;;;;;;;7.04;79.26;99029.44;5077566;28;20686;-80
2021/03/11 06:53:56;;;;;;;11.03;7.63;;;;;;;7.08;79.52;99014.16;5072480;28;20204;-79
2021/03/11 06:56:23;;;;;;;12.47;8.03;;;;;;;7.05;79.17;98994.06;5070720;28;20196;-81
2021/03/11 06:59:01;;;;;;;11.63;8.63;;;;;;;7.08;79.23;99003.56;5072058;28;20212;-80
2021/03/11 07:01:29;;;;;;;11.40;8.53;;;;;;;7.07;79.13;99015.97;5063463;28;20263;-79
2021/03/11 07:03:58;;;;;;;11.43;8.07;;;;;;;7.10;79.48;99015.75;5064048;28;20236;-80
2021/03/11 07:06:30;;;;;;;12.37;7.73;;;;;;;7.09;79.63;98992.03;5063186;28;20201;-79
2021/03/11 07:08:57;;;;;;;11.37;8.67;;;;;;;7.12;79.17;98999.75;5068465;28;20830;-80
2021/03/11 07:11:24;;;;;;;11.13;6.67;;;;;;;7.14;79.83;98997.84;5066069;28;20307;-79
2021/03/11 07:13:53;;;;;;;12.53;8.50;;;;;;;7.15;79.43;99000.38;5076958;28;20296;-77
2021/03/11 07:16:20;;;;;;;10.33;7.30;;;;;;;7.17;79.70;99021.41;5072851;28;20296;-79
2021/03/11 07:18:48;;;;;;;11.00;8.73;;;;;;;7.18;79.67;98975.44;5066445;28;20249;-79
2021/03/11 07:21:43;;;;;;;10.00;7.33;;;;;;;7.19;79.68;98971.81;5073443;28;20228;-79
2021/03/11 07:24:10;;;;;;;9.17;7.30;;;;;;;7.21;79.71;98988.44;5072869;28;20785;-80
2021/03/11 07:26:55;;;;;;;9.60;6.97;;;;;;;7.22;79.56;98983.03;5075835;28;20198;-81
2021/03/11 07:29:21;;;;;;;9.63;6.57;;;;;;;7.23;79.43;98984.72;5075461;28;20233;-80
2021/03/11 07:31:54;;;;;;;9.37;6.40;;;;;;;7.28;80.01;98976.44;5073895;28;20235;-79
2021/03/11 07:34:25;;;;;;;7.77;5.30;;;;;;;7.29;79.58;98983.44;5074106;28;20208;-78
2021/03/11 07:36:57;;;;;;;9.10;6.33;;;;;;;7.31;79.93;98992.94;5077456;28;20204;-80
2021/03/11 07:39:26;;;;;;;8.33;6.20;;;;;;;7.32;79.64;98989.34;5086072;28;20196;-80
2021/03/11 07:41:53;;;;;;;7.57;5.27;;;;;;;7.34;80.19;98983.94;5086747;28;20708;-79
2021/03/11 07:44:19;;;;;;;7.47;4.53;;;;;;;7.39;80.04;98987.03;5073483;28;20305;-77
2021/03/11 07:46:46;;;;;;;6.27;5.20;;;;;;;7.46;80.08;98987.44;5058423;28;20210;-79
2021/03/11 07:49:21;;;;;;;7.93;5.83;;;;;;;7.50;79.39;98986.25;5071606;28;20274;-80
2021/03/11 07:51:48;;;;;;;7.33;5.37;;;;;;;7.54;79.29;98983.22;5075029;28;20552;-77
2021/03/11 07:54:17;;;;;;;7.30;5.27;;;;;;;7.58;79.32;98984.66;5074343;28;20212;-80
2021/03/11 07:56:43;;;;;;;6.63;4.83;;;;;;;7.61;79.69;98983.59;5068100;28;20201;-79
2021/03/11 07:59:09;;;;;;;5.80;4.83;;;;;;;7.64;79.54;98984.19;5061752;28;20210;-81
2021/03/11 08:01:44;;;;;;;6.30;4.13;;;;;;;7.69;79.20;98985.66;5080733;28;20232;-81
2021/03/11 08:04:11;;;;;;;6.33;4.30;;;;;;;7.73;79.74;98972.03;5065203;28;20720;-79
2021/03/11 08:06:38;;;;;;;6.13;4.27;;;;;;;7.76;78.97;98961.19;5060552;28;20229;-77
2021/03/11 08:09:05;;;;;;;5.07;3.67;;;;;;;7.78;78.72;98959.28;5076703;28;20319;-79
2021/03/11 08:11:33;;;;;;;7.57;4.67;;;;;;;7.84;79.34;98957.94;5072820;28;20285;-79
2021/03/11 08:14:22;;;;;;;4.20;3.40;;;;;;;7.88;78.63;98954.91;5079013;28;20200;-79
2021/03/11 08:16:49;;;;;;;6.73;4.10;;;;;;;7.93;78.22;98957.22;5071334;28;20243;-78
2021/03/11 08:19:48;;;;;;;4.50;3.43;;;;;;;7.99;78.16;98969.97;5080016;28;20612;-78
2021/03/11 08:22:14;;;;;;;5.07;4.10;;;;;;;8.01;78.02;98971.56;5069928;28;20204;-79
2021/03/11 08:24:47;;;;;;;4.20;3.30;;;;;;;8.05;78.29;98985.41;5070987;28;20352;-77
2021/03/11 08:27:42;;;;;;;4.37;3.47;;;;;;;8.07;77.77;98956.94;5065840;28;20197;-78
2021/03/11 08:30:48;;;;;;;4.70;3.23;;;;;;;8.11;77.69;98950.44;5080103;28;20235;-76
2021/03/11 08:33:35;;;;;;;4.07;2.77;;;;;;;8.13;78.04;98952.97;5079564;28;20211;-77
2021/03/11 08:36:03;;;;;;;3.73;3.00;;;;;;;8.15;78.26;98951.88;5080471;28;20295;-78
2021/03/11 08:38:39;;;;;;;4.33;3.27;;;;;;;8.20;77.22;98941.75;5078169;28;20265;-77
2021/03/11 08:41:07;;;;;;;4.43;3.27;;;;;;;8.23;78.03;98932.72;5060182;28;20232;-79
2021/03/11 08:43:54;;;;;;;4.50;3.10;;;;;;;8.27;77.82;98934.13;5071983;28;20201;-81
2021/03/11 08:46:22;;;;;;;5.30;3.03;;;;;;;8.32;77.61;98930.19;5084028;28;20227;-79
2021/03/11 08:48:51;;;;;;;4.53;3.30;;;;;;;8.36;77.52;98933.44;5085421;28;20631;-81
2021/03/11 08:51:37;;;;;;;4.87;2.83;;;;;;;8.42;76.67;98934.75;5093727;28;20510;-79
2021/03/11 08:54:04;;;;;;;5.57;3.03;;;;;;;8.46;76.81;98901.69;5087468;28;20208;-80
2021/03/11 08:56:41;;;;;;;3.63;2.70;;;;;;;8.49;76.67;98902.28;5085246;28;20279;-77
2021/03/11 08:59:10;;;;;;;3.63;2.70;;;;;;;8.53;77.02;98897.56;5080703;28;20268;-78
2021/03/11 09:01:39;;;;;;;4.00;3.07;;;;;;;8.56;76.49;98906.13;5080651;28;20259;-79
2021/03/11 09:04:07;;;;;;;4.10;2.70;;;;;;;8.60;76.91;98904.03;5083904;28;20202;-80
2021/03/11 09:06:54;;;;;;;3.60;2.93;;;;;;;8.64;76.79;98905.47;5082619;28;20196;-79
2021/03/11 09:09:32;;;;;;;3.30;2.33;;;;;;;8.65;76.20;98892.06;5087029;28;20881;-78
2021/03/11 09:12:00;;;;;;;4.17;2.77;;;;;;;8.68;76.12;98891.81;5086327;28;20210;-79
2021/03/11 09:14:27;;;;;;;3.27;2.50;;;;;;;8.70;76.15;98891.69;5080962;28;20232;-80
2021/03/11 09:17:10;;;;;;;4.67;2.80;;;;;;;8.71;76.58;98896.03;5071197;28;20197;-78
2021/03/11 09:19:42;;;;;;;2.30;2.00;;;;;;;8.75;75.82;98893.97;5066528;28;20320;-79
2021/03/11 09:22:23;;;;;;;3.60;2.20;;;;;;;8.77;75.62;98894.69;5074105;28;20204;-79
2021/03/11 09:25:14;;;;;;;3.37;2.60;;;;;;;8.80;75.27;98887.28;5068667;28;20207;-80
2021/03/11 09:27:52;;;;;;;4.67;2.17;;;;;;;8.82;75.24;98893.31;5061640;28;20371;-81
2021/03/11 09:30:21;;;;;;;5.47;2.83;;;;;;;8.84;75.63;98872.78;5076750;28;20238;-78
2021/03/11 09:32:47;;;;;;;3.47;2.40;;;;;;;8.87;74.98;98891.13;5075710;28;20284;-80
2021/03/11 09:35:14;;;;;;;2.30;2.10;;;;;;;8.90;75.09;98893.53;5085813;28;20219;-80
2021/03/11 09:37:55;;;;;;;3.50;2.47;;;;;;;8.92;75.13;98858.88;5067963;28;20209;-79
2021/03/11 09:40:28;;;;;;;2.90;2.37;;;;;;;8.95;75.09;98856.81;5074005;28;20224;-80
2021/03/11 09:43:09;;;;;;;3.23;1.90;;;;;;;9.00;75.64;98851.09;5071832;28;20197;-80
2021/03/11 09:45:39;;;;;;;2.90;1.80;;;;;;;9.09;75.61;98825.56;5070293;28;20623;-79
2021/03/11 09:48:10;;;;;;;3.93;2.27;;;;;;;9.16;75.15;98830.22;5073623;28;20277;-80
2021/03/11 09:50:48;;;;;;;3.07;1.90;;;;;;;9.26;75.25;98827.59;5067526;28;20638;-80
2021/03/11 09:53:15;;;;;;;3.43;1.97;;;;;;;9.31;74.74;98817.44;5069679;28;20196;-79
2021/03/11 09:55:41;;;;;;;2.23;1.80;;;;;;;9.38;75.13;98810.59;5068347;28;20683;-78
2021/03/11 09:58:13;;;;;;;2.33;1.77;;;;;;;9.49;75.44;98791.91;5074519;28;20731;-79
2021/03/11 10:00:41;;;;;;;1.87;1.50;;;;;;;9.59;75.11;98790.09;5078637;22;20323;-72
2021/03/11 10:03:16;;;;;;;2.43;1.83;;;;;;;9.76;74.94;98799.22;5069857;28;20371;-70
2021/03/11 10:05:43;;;;;;;2.50;1.70;;;;;;;9.94;74.50;98788.75;5067950;28;20213;-70
2021/03/11 10:08:09;;;;;;;2.33;1.77;;;;;;;10.08;74.29;98754.63;5061521;28;20222;-70
2021/03/11 10:10:35;;;;;;;3.10;2.00;;;;;;;10.20;73.30;98750.03;5035810;28;20321;-70
2021/03/11 10:13:01;;;;;;;2.93;1.80;;;;;;;10.26;73.03;98757.44;5068175;22;20239;-66
2021/03/11 10:15:28;;;;;;;2.20;1.60;;;;;;;10.34;72.81;98754.94;5086277;28;20204;-66
2021/03/11 10:18:09;;;;;;;1.90;1.40;;;;;;;10.41;72.10;98757.84;5088718;28;20204;-66
2021/03/11 10:20:36;;;;;;;3.00;1.80;;;;;;;10.45;71.36;98737.94;5085049;28;20620;-67
2021/03/11 10:23:16;;;;;;;3.47;1.60;;;;;;;10.50;71.35;98742.84;5078032;28;20327;-67
2021/03/11 10:25:42;;;;;;;2.80;1.57;;;;;;;10.54;70.96;98730.94;5074366;28;20201;-66
2021/03/11 10:28:08;;;;;;;2.03;1.50;;;;;;;10.55;70.42;98728.16;5077279;28;20205;-67
2021/03/11 10:30:37;;;;;;;2.60;1.90;;;;;;;10.55;70.12;98737.94;5076037;28;21605;-67
2021/03/11 10:33:05;;;;;;;4.00;1.83;;;;;;;10.57;69.98;98738.66;5073677;28;20296;-66
2021/03/11 10:35:33;;;;;;;1.67;1.43;;;;;;;10.57;70.04;98731.47;5077922;28;20201;-66
2021/03/11 10:38:14;;;;;;;2.00;1.63;;;;;;;10.57;69.91;98758.09;5076587;28;20208;-66
2021/03/11 10:40:40;;;;;;;2.43;2.03;;;;;;;10.60;69.83;98762.28;5075746;28;20686;-67
2021/03/11 10:43:16;;;;;;;1.47;1.30;;;;;;;10.61;70.55;98762.16;5075107;28;20653;-67
2021/03/11 10:45:42;;;;;;;2.27;1.87;;;;;;;10.61;70.45;98726.72;5077516;28;20204;-66
2021/03/11 10:48:09;;;;;;;2.40;1.70;;;;;;;10.59;71.21;98713.53;5078817;28;20200;-66
2021/03/11 10:50:39;;;;;;;2.10;1.57;;;;;;;10.58;71.26;98711.84;5080450;28;20224;-67
2021/03/11 10:53:06;;;;;;;2.70;1.73;;;;;;;10.56;71.79;98732.50;5074809;28;20221;-66
2021/03/11 10:55:33;;;;;;;3.27;1.93;;;;;;;10.54;72.10;98742.44;5076615;28;20200;-65
2021/03/11 10:58:01;;;;;;;2.50;1.80;;;;;;;10.51;72.14;98750.69;5075200;28;20300;-67
2021/03/11 11:00:28;;;;;;;2.37;1.53;;;;;;;10.48;72.18;98750.13;5072344;28;20208;-66
2021/03/11 11:02:56;;;;;;;2.20;1.80;;;;;;;10.43;72.45;98748.75;5074920;28;20232;-67
2021/03/11 11:05:23;;;;;;;3.07;1.47;;;;;;;10.37;72.98;98761.78;5073678;28;20296;-69
2021/03/11 11:07:51;;;;;;;2.93;1.73;;;;;;;10.34;73.74;98778.88;5075078;28;20204;-68
2021/03/11 11:10:19;;;;;;;4.03;2.33;;;;;;;10.30;73.66;98772.16;5072306;28;20243;-66
2021/03/11 11:12:46;;;;;;;3.80;2.77;;;;;;;10.26;73.67;98762.75;5069568;28;20810;-68
2021/03/11 11:15:13;;;;;;;4.17;3.20;;;;;;;10.24;73.99;98770.03;5075200;28;20204;-67
2021/03/11 11:17:40;;;;;;;3.97;3.17;;;;;;;10.21;74.89;98785.47;5074859;28;20299;-67
2021/03/11 11:20:08;;;;;;;2.77;1.60;;;;;;;10.14;75.60;98773.66;5078290;28;20299;-68
2021/03/11 11:22:34;;;;;;;3.90;1.97;;;;;;;10.10;75.47;98747.34;5074628;28;20236;-68
2021/03/11 11:25:02;;;;;;;2.50;1.60;;;;;;;10.03;75.88;98708.97;5075481;28;20287;-68
2021/03/11 11:27:28;;;;;;;2.23;1.20;;;;;;;10.00;75.57;98716.41;5077400;28;20269;-68
2021/03/11 11:29:54;;;;;;;3.00;1.10;;;;;;;9.92;75.80;98713.59;5077018;28;20634;-68
2021/03/11 11:32:23;;;;;;;2.00;0.83;;;;;;;9.86;75.78;98698.19;5078059;28;20289;-69
2021/03/11 11:34:49;;;;;;;2.23;1.17;;;;;;;9.82;75.27;98671.09;5081224;28;20257;-67
2021/03/11 11:37:15;;;;;;;2.10;1.10;;;;;;;9.81;75.29;98687.16;5079488;28;20261;-69
2021/03/11 11:39:42;;;;;;;1.53;0.87;;;;;;;9.82;74.96;98670.25;5081434;28;20283;-68
2021/03/11 11:42:09;;;;;;;4.57;2.30;;;;;;;9.84;75.69;98663.81;5078731;28;20212;-68